createdAt,value
2019-05-16T00:00:35.063Z,16.41
2019-05-16T00:03:08.014Z,16.26
2019-05-16T00:05:50.733Z,16.12
2019-05-16T00:08:14.058Z,16.04
2019-05-16T00:10:48.602Z,15.94
2019-05-16T00:13:54.901Z,16.03
2019-05-16T00:17:24.762Z,16.08
2019-05-16T00:19:32.275Z,16.05
2019-05-16T00:22:08.553Z,16.07
2019-05-16T00:24:40.179Z,16.00
2019-05-16T00:27:12.385Z,15.93
2019-05-16T00:29:44.428Z,16.06
2019-05-16T00:36:24.085Z,15.91
2019-05-16T00:39:11.172Z,15.91
2019-05-16T00:41:47.903Z,15.91
2019-05-16T00:44:20.110Z,15.91
2019-05-16T00:46:52.116Z,15.81
2019-05-16T00:49:24.195Z,15.78
2019-05-16T00:51:58.457Z,15.79
2019-05-16T00:54:55.056Z,15.84
2019-05-16T01:00:45.983Z,15.98
2019-05-16T01:06:53.536Z,15.95
2019-05-16T01:09:28.248Z,15.99
2019-05-16T01:12:01.373Z,15.92
2019-05-16T01:14:35.186Z,15.84
2019-05-16T01:17:08.962Z,15.78
2019-05-16T01:19:40.936Z,15.88
2019-05-16T01:22:13.319Z,15.84
2019-05-16T01:24:49.088Z,15.86
2019-05-16T01:27:20.589Z,15.77
2019-05-16T01:29:54.502Z,15.88
2019-05-16T01:32:31.854Z,15.88
2019-05-16T01:35:00.334Z,15.86
2019-05-16T01:37:32.303Z,15.79
2019-05-16T01:40:04.399Z,15.81
2019-05-16T01:42:38.308Z,15.78
2019-05-16T01:45:11.541Z,15.70
2019-05-16T01:47:43.497Z,15.75
2019-05-16T01:50:18.001Z,15.72
2019-05-16T01:52:49.745Z,15.66
2019-05-16T01:55:21.818Z,15.65
2019-05-16T01:57:53.899Z,15.70
2019-05-16T02:00:35.793Z,15.63
2019-05-16T02:03:00.314Z,15.68
2019-05-16T02:05:32.403Z,15.71
2019-05-16T02:08:04.393Z,15.67
2019-05-16T02:10:38.794Z,15.68
2019-05-16T02:13:10.897Z,15.73
2019-05-16T02:15:43.287Z,15.80
2019-05-16T02:18:18.478Z,15.86
2019-05-16T02:20:50.773Z,15.88
2019-05-16T02:23:22.795Z,15.82
2019-05-16T02:25:54.788Z,15.76
2019-05-16T02:28:30.896Z,15.62
2019-05-16T02:31:01.703Z,15.56
2019-05-16T02:33:34.829Z,15.65
2019-05-16T02:36:06.856Z,15.61
2019-05-16T02:38:42.002Z,15.58
2019-05-16T02:41:12.769Z,15.56
2019-05-16T02:43:44.835Z,15.56
2019-05-16T02:46:16.976Z,15.57
2019-05-16T02:48:51.810Z,15.49
2019-05-16T02:51:22.666Z,15.51
2019-05-16T02:53:56.599Z,15.58
2019-05-16T02:56:31.665Z,15.55
2019-05-16T02:59:02.483Z,15.62
2019-05-16T03:01:35.081Z,15.61
2019-05-16T03:04:07.251Z,15.60
2019-05-16T03:06:41.160Z,15.64
2019-05-16T03:09:14.039Z,15.66
2019-05-16T03:11:46.671Z,15.71
2019-05-16T03:14:21.312Z,15.60
2019-05-16T03:16:55.115Z,15.57
2019-05-16T03:19:31.134Z,15.61
2019-05-16T03:22:05.372Z,15.65
2019-05-16T03:24:42.035Z,15.62
2019-05-16T03:27:12.726Z,15.67
2019-05-16T03:29:44.687Z,15.53
2019-05-16T03:32:16.709Z,15.48
2019-05-16T03:34:54.198Z,15.47
2019-05-16T03:37:24.953Z,15.44
2019-05-16T03:39:56.613Z,15.52
2019-05-16T03:42:31.064Z,15.51
2019-05-16T03:45:02.662Z,15.55
2019-05-16T03:47:34.675Z,15.54
2019-05-16T03:50:06.890Z,15.59
2019-05-16T03:52:43.701Z,15.56
2019-05-16T03:55:15.003Z,15.64
2019-05-16T03:57:46.984Z,15.67
2019-05-16T04:00:21.232Z,15.74
2019-05-16T04:02:53.314Z,15.71
2019-05-16T04:05:26.087Z,15.75
2019-05-16T04:08:18.510Z,15.84
2019-05-16T04:10:35.552Z,15.77
2019-05-16T04:13:11.529Z,15.74
2019-05-16T04:15:43.434Z,15.71
2019-05-16T04:18:15.840Z,15.67
2019-05-16T04:20:47.805Z,15.74
2019-05-16T04:23:20.609Z,15.77
2019-05-16T04:25:53.950Z,15.77
2019-05-16T04:28:26.027Z,15.70
2019-05-16T04:31:01.419Z,15.67
2019-05-16T04:33:31.712Z,15.65
2019-05-16T04:36:03.673Z,15.61
2019-05-16T04:38:41.397Z,15.61
2019-05-16T04:41:11.507Z,15.59
2019-05-16T04:43:45.409Z,15.58
2019-05-16T04:46:20.927Z,15.59
2019-05-16T04:48:51.299Z,15.44
2019-05-16T04:51:23.456Z,15.49
2019-05-16T04:53:55.537Z,15.47
2019-05-16T04:56:30.666Z,15.48
2019-05-16T04:59:01.283Z,15.50
2019-05-16T05:01:33.411Z,15.35
2019-05-16T05:04:10.886Z,15.22
2019-05-16T05:06:40.560Z,15.12
2019-05-16T05:09:12.921Z,15.16
2019-05-16T05:11:46.678Z,15.09
2019-05-16T05:14:21.062Z,15.10
2019-05-16T05:16:54.095Z,15.21
2019-05-16T05:19:26.092Z,15.18
2019-05-16T05:22:01.143Z,15.13
2019-05-16T05:24:34.219Z,15.16
2019-05-16T05:27:10.297Z,15.13
2019-05-16T05:29:41.541Z,15.16
2019-05-16T05:32:14.524Z,15.24
2019-05-16T05:34:46.704Z,15.20
2019-05-16T05:37:20.487Z,15.25
2019-05-16T05:39:52.561Z,15.24
2019-05-16T05:42:24.868Z,15.25
2019-05-16T05:44:57.268Z,15.28
2019-05-16T05:47:30.796Z,15.35
2019-05-16T05:50:03.061Z,15.41
2019-05-16T05:52:35.017Z,15.41
2019-05-16T05:55:07.370Z,15.42
2019-05-16T05:57:40.368Z,15.55
2019-05-16T06:00:12.686Z,15.57
2019-05-16T06:02:44.688Z,15.61
2019-05-16T06:05:20.210Z,15.69
2019-05-16T06:07:52.493Z,15.78
2019-05-16T06:10:24.559Z,15.86
2019-05-16T06:12:56.643Z,15.63
2019-05-16T06:15:30.621Z,15.80
2019-05-16T06:18:03.802Z,15.84
2019-05-16T06:20:39.992Z,15.79
2019-05-16T06:23:11.386Z,15.97
2019-05-16T06:25:43.414Z,15.98
2019-05-16T06:28:15.517Z,15.98
2019-05-16T06:30:51.572Z,16.05
2019-05-16T06:33:22.623Z,15.88
2019-05-16T06:35:54.779Z,15.85
2019-05-16T06:38:26.849Z,16.10
2019-05-16T06:41:00.274Z,16.21
2019-05-16T06:43:34.396Z,19.38
2019-05-16T06:46:06.367Z,19.42
2019-05-16T06:48:39.855Z,19.14
2019-05-16T06:51:12.186Z,19.50
2019-05-16T06:53:47.280Z,19.34
2019-05-16T06:56:20.070Z,19.39
2019-05-16T06:58:52.424Z,18.63
2019-05-16T07:01:36.730Z,18.74
2019-05-16T07:04:13.504Z,18.51
2019-05-16T07:06:58.615Z,18.23
2019-05-16T07:09:22.336Z,17.91
2019-05-16T07:11:54.551Z,18.06
2019-05-16T07:14:30.741Z,18.09
2019-05-16T07:17:00.809Z,17.95
2019-05-16T07:19:35.386Z,18.61
2019-05-16T07:22:06.808Z,18.85
2019-05-16T07:24:39.959Z,18.76
2019-05-16T07:27:12.588Z,18.86
2019-05-16T07:29:44.714Z,18.90
2019-05-16T07:32:16.988Z,18.99
2019-05-16T07:34:49.858Z,18.92
2019-05-16T07:37:22.328Z,18.97
2019-05-16T07:39:55.135Z,18.65
2019-05-16T07:42:27.228Z,18.78
2019-05-16T07:45:01.197Z,18.61
2019-05-16T07:47:33.312Z,19.03
2019-05-16T07:50:05.527Z,19.11
2019-05-16T07:52:39.980Z,19.10
2019-05-16T07:55:13.158Z,19.05
2019-05-16T07:57:45.242Z,19.17
2019-05-16T08:00:21.251Z,19.22
2019-05-16T08:02:51.608Z,18.80
2019-05-16T08:05:25.935Z,18.66
2019-05-16T08:08:00.050Z,18.17
2019-05-16T08:10:40.675Z,17.93
2019-05-16T08:13:05.731Z,17.79
2019-05-16T08:15:40.540Z,17.73
2019-05-16T08:18:11.618Z,17.73
2019-05-16T08:20:43.698Z,17.69
2019-05-16T08:23:16.743Z,18.07
2019-05-16T08:25:50.978Z,18.56
2019-05-16T08:28:24.215Z,19.01
2019-05-16T08:30:56.290Z,19.61
2019-05-16T08:33:31.195Z,20.02
2019-05-16T08:36:07.886Z,20.03
2019-05-16T08:38:43.263Z,20.09
2019-05-16T08:41:17.443Z,20.07
2019-05-16T08:43:53.406Z,19.89
2019-05-16T08:46:25.798Z,19.49
2019-05-16T08:49:00.826Z,19.14
2019-05-16T08:51:33.181Z,19.54
2019-05-16T08:54:05.883Z,19.16
2019-05-16T08:56:43.752Z,19.29
2019-05-16T08:59:13.612Z,19.02
2019-05-16T09:01:56.696Z,19.10
2019-05-16T09:04:25.888Z,19.18
2019-05-16T09:08:00.453Z,19.44
2019-05-16T09:10:59.970Z,20.06
2019-05-16T09:13:14.390Z,19.88
2019-05-16T09:15:48.125Z,19.94
2019-05-16T09:18:20.520Z,19.51
2019-05-16T09:20:53.459Z,19.65
2019-05-16T09:23:26.795Z,20.05
2019-05-16T09:26:01.752Z,19.84
2019-05-16T09:28:33.690Z,19.62
2019-05-16T09:31:07.140Z,19.60
2019-05-16T09:33:39.239Z,19.67
2019-05-16T09:36:11.422Z,19.60
2019-05-16T09:38:43.557Z,19.70
2019-05-16T09:41:17.051Z,19.25
2019-05-16T09:43:49.587Z,19.64
2019-05-16T09:46:21.512Z,19.87
2019-05-16T09:49:13.019Z,19.64
2019-05-16T09:51:27.400Z,19.80
2019-05-16T09:53:59.326Z,20.05
2019-05-16T09:56:33.598Z,20.56
2019-05-16T09:59:06.895Z,21.29
2019-05-16T10:01:39.018Z,21.81
2019-05-16T10:04:11.163Z,21.76
2019-05-16T10:06:43.173Z,21.69
2019-05-16T10:09:17.422Z,20.93
2019-05-16T10:11:54.151Z,20.93
2019-05-16T10:14:22.678Z,21.00
2019-05-16T10:16:54.582Z,20.81
2019-05-16T10:19:27.563Z,20.40
2019-05-16T10:22:00.298Z,20.50
2019-05-16T10:24:33.473Z,20.21
2019-05-16T10:27:06.860Z,20.68
2019-05-16T10:29:38.934Z,20.59
2019-05-16T10:32:11.074Z,20.12
2019-05-16T10:34:43.695Z,20.37
2019-05-16T10:37:17.577Z,19.88
2019-05-16T10:39:49.392Z,20.49
2019-05-16T10:42:28.537Z,20.42
2019-05-16T10:44:57.558Z,20.47
2019-05-16T10:47:31.325Z,20.41
2019-05-16T10:50:02.993Z,20.82
2019-05-16T10:52:36.718Z,20.45
2019-05-16T10:55:10.353Z,20.19
2019-05-16T10:57:43.995Z,20.50
2019-05-16T11:00:37.129Z,20.20
2019-05-16T11:02:52.262Z,19.93
2019-05-16T11:05:33.040Z,19.46
2019-05-16T11:08:02.385Z,19.83
2019-05-16T11:10:37.142Z,19.49
2019-05-16T11:13:08.396Z,19.61
2019-05-16T11:15:40.362Z,19.75
2019-05-16T11:18:13.123Z,19.91
2019-05-16T11:20:49.122Z,20.03
2019-05-16T11:23:23.035Z,20.82
2019-05-16T11:25:55.395Z,21.45
2019-05-16T11:28:28.227Z,21.68
2019-05-16T11:31:03.557Z,22.06
2019-05-16T11:33:34.057Z,21.85
2019-05-16T11:36:08.245Z,21.88
2019-05-16T11:38:39.980Z,22.09
2019-05-16T11:41:12.923Z,22.14
2019-05-16T11:43:47.401Z,21.89
2019-05-16T11:46:19.602Z,22.55
2019-05-16T11:48:51.591Z,23.00
2019-05-16T11:51:23.874Z,23.63
2019-05-16T11:54:00.010Z,24.59
2019-05-16T11:56:32.122Z,24.82
2019-05-16T11:59:04.144Z,25.53
2019-05-16T12:01:36.965Z,25.50
2019-05-16T12:04:09.323Z,25.87
2019-05-16T12:06:41.840Z,24.66
2019-05-16T12:09:14.013Z,23.81
2019-05-16T12:11:46.010Z,23.22
2019-05-16T12:14:17.942Z,23.87
2019-05-16T12:16:49.974Z,23.85
2019-05-16T12:19:22.025Z,23.87
2019-05-16T12:21:54.021Z,24.18
2019-05-16T12:24:33.660Z,24.55
2019-05-16T12:27:00.725Z,24.93
2019-05-16T12:29:32.848Z,25.51
2019-05-16T12:32:07.410Z,24.54
2019-05-16T12:34:38.545Z,23.83
2019-05-16T12:37:12.734Z,23.53
2019-05-16T12:39:47.140Z,22.90
2019-05-16T12:42:19.392Z,23.01
2019-05-16T12:44:51.330Z,23.08
2019-05-16T12:47:23.697Z,23.33
2019-05-16T12:49:58.217Z,23.76
2019-05-16T12:52:31.181Z,24.00
2019-05-16T12:55:04.125Z,24.14
2019-05-16T12:57:38.300Z,23.51
2019-05-16T13:00:15.344Z,23.82
2019-05-16T13:02:47.347Z,23.62
2019-05-16T13:05:20.462Z,23.06
2019-05-16T13:07:52.429Z,22.07
2019-05-16T13:10:27.034Z,21.94
2019-05-16T13:12:59.164Z,21.66
2019-05-16T13:15:31.081Z,21.48
2019-05-16T13:18:03.055Z,21.54
2019-05-16T13:20:39.232Z,21.79
2019-05-16T13:23:14.361Z,22.49
2019-05-16T13:25:44.277Z,22.67
2019-05-16T13:28:16.333Z,23.28
2019-05-16T13:30:48.329Z,23.83
2019-05-16T13:33:20.352Z,23.45
2019-05-16T13:35:52.256Z,23.49
2019-05-16T13:38:27.866Z,23.27
2019-05-16T13:41:00.113Z,23.82
2019-05-16T13:43:32.066Z,23.50
2019-05-16T13:46:06.857Z,23.79
2019-05-16T13:48:38.002Z,23.56
2019-05-16T13:51:15.208Z,23.45
2019-05-16T13:53:44.312Z,23.48
2019-05-16T13:56:17.555Z,23.64
2019-05-16T13:58:49.857Z,24.20
2019-05-16T14:01:23.254Z,23.56
2019-05-16T14:03:57.290Z,23.38
2019-05-16T14:06:30.884Z,23.51
2019-05-16T14:09:03.830Z,23.90
2019-05-16T14:11:36.504Z,23.52
2019-05-16T14:14:08.530Z,22.26
2019-05-16T14:16:41.500Z,22.22
2019-05-16T14:19:17.285Z,22.37
2019-05-16T14:21:48.121Z,22.90
2019-05-16T14:24:20.052Z,22.70
2019-05-16T14:26:52.018Z,22.63
2019-05-16T14:29:23.936Z,23.13
2019-05-16T14:31:58.725Z,22.92
2019-05-16T14:34:30.643Z,22.61
2019-05-16T14:37:02.621Z,22.47
2019-05-16T14:39:38.884Z,22.67
2019-05-16T14:42:11.279Z,22.22
2019-05-16T14:44:59.586Z,21.95
2019-05-16T14:47:17.722Z,21.44
2019-05-16T14:49:50.318Z,21.57
2019-05-16T14:52:22.227Z,21.23
2019-05-16T14:54:54.240Z,21.12
2019-05-16T14:57:27.403Z,20.83
2019-05-16T14:59:59.398Z,20.83
2019-05-16T15:02:31.415Z,20.99
2019-05-16T15:05:03.351Z,20.89
2019-05-16T15:07:37.623Z,20.76
2019-05-16T15:10:11.053Z,20.57
2019-05-16T15:12:43.075Z,20.67
2019-05-16T15:15:23.403Z,20.46
2019-05-16T15:17:56.668Z,20.72
2019-05-16T15:20:28.035Z,20.43
2019-05-16T15:23:00.041Z,20.75
2019-05-16T15:25:31.999Z,21.18
2019-05-16T15:28:03.956Z,20.91
2019-05-16T15:30:39.009Z,20.56
2019-05-16T15:33:10.962Z,20.54
2019-05-16T15:35:42.925Z,20.62
2019-05-16T15:38:16.671Z,20.86
2019-05-16T15:40:50.767Z,20.73
2019-05-16T15:43:27.543Z,20.18
2019-05-16T15:46:01.144Z,20.23
2019-05-16T15:48:36.852Z,20.33
2019-05-16T15:51:09.139Z,20.35
2019-05-16T15:53:41.207Z,20.00
2019-05-16T15:56:17.628Z,19.62
2019-05-16T15:58:49.227Z,19.76
2019-05-16T16:01:21.314Z,19.56
2019-05-16T16:03:53.246Z,19.66
2019-05-16T16:06:27.444Z,19.81
2019-05-16T16:09:00.013Z,19.05
2019-05-16T16:11:32.001Z,18.82
2019-05-16T16:14:06.993Z,18.47
2019-05-16T16:16:38.509Z,18.08
2019-05-16T16:19:10.470Z,17.98
2019-05-16T16:21:47.074Z,17.89
2019-05-16T16:24:19.133Z,18.19
2019-05-16T16:26:51.455Z,18.25
2019-05-16T16:29:23.853Z,18.23
2019-05-16T16:31:56.906Z,18.01
2019-05-16T16:34:28.978Z,17.81
2019-05-16T16:37:00.939Z,17.95
2019-05-16T16:39:33.591Z,17.70
2019-05-16T16:42:07.616Z,17.52
2019-05-16T16:44:39.384Z,17.38
2019-05-16T16:47:11.684Z,17.33
2019-05-16T16:49:43.668Z,17.79
2019-05-16T16:52:16.779Z,18.06
2019-05-16T16:54:49.595Z,18.17
2019-05-16T16:57:21.522Z,18.09
2019-05-16T16:59:53.825Z,17.79
2019-05-16T17:02:27.790Z,17.53
2019-05-16T17:05:01.599Z,17.45
2019-05-16T17:07:37.297Z,17.31
2019-05-16T17:10:10.228Z,17.29
2019-05-16T17:12:42.699Z,17.10
2019-05-16T17:15:17.062Z,17.03
2019-05-16T17:17:48.723Z,17.07
2019-05-16T17:20:20.968Z,17.15
2019-05-16T17:22:52.890Z,17.14
2019-05-16T17:25:26.876Z,17.16
2019-05-16T17:28:00.309Z,17.06
2019-05-16T17:30:36.768Z,16.90
2019-05-16T17:33:09.042Z,16.89
2019-05-16T17:35:41.525Z,16.69
2019-05-16T17:38:13.495Z,16.69
2019-05-16T17:40:46.449Z,16.84
2019-05-16T17:43:19.649Z,17.14
2019-05-16T17:45:51.629Z,17.40
2019-05-16T17:48:27.221Z,17.37
2019-05-16T17:50:57.200Z,17.22
2019-05-16T17:53:29.124Z,16.95
2019-05-16T17:56:02.123Z,16.91
2019-05-16T17:58:34.091Z,16.92
2019-05-16T18:01:08.001Z,16.67
2019-05-16T18:03:39.953Z,16.66
2019-05-16T18:06:16.877Z,16.47
2019-05-16T18:08:48.548Z,16.26
2019-05-16T18:11:20.559Z,16.23
2019-05-16T18:13:57.142Z,16.22
2019-05-16T18:16:30.323Z,16.21
2019-05-16T18:19:02.286Z,16.14
2019-05-16T18:21:34.247Z,16.05
2019-05-16T18:24:06.428Z,16.11
2019-05-16T18:26:38.491Z,16.20
2019-05-16T18:29:10.526Z,16.23
2019-05-16T18:31:42.497Z,16.16
2019-05-16T18:34:16.865Z,15.93
2019-05-16T18:36:48.595Z,15.93
2019-05-16T18:39:20.521Z,15.94
2019-05-16T18:41:52.630Z,15.88
2019-05-16T18:44:24.575Z,15.92
2019-05-16T18:47:06.664Z,15.90
2019-05-16T18:49:30.218Z,15.92
2019-05-16T18:52:02.217Z,15.86
2019-05-16T18:54:37.595Z,15.80
2019-05-16T18:57:09.512Z,15.81
2019-05-16T18:59:41.855Z,15.70
2019-05-16T19:02:13.871Z,15.84
2019-05-16T19:04:46.575Z,15.80
2019-05-16T19:07:19.710Z,15.69
2019-05-16T19:09:51.730Z,15.67
2019-05-16T19:12:26.189Z,15.65
2019-05-16T19:15:00.215Z,15.55
2019-05-16T19:31:00.237Z,15.51
2019-05-16T19:33:35.937Z,15.23
2019-05-16T19:36:12.588Z,15.21
2019-05-16T19:38:49.688Z,15.14
2019-05-16T19:41:29.124Z,15.02
2019-05-16T19:44:06.726Z,14.91
2019-05-16T19:46:47.273Z,14.80
2019-05-16T19:49:21.562Z,14.62
2019-05-16T19:51:53.723Z,14.57
2019-05-16T19:54:27.032Z,14.54
2019-05-16T19:57:00.442Z,14.39
2019-05-16T19:59:36.581Z,14.30
2019-05-16T20:02:08.491Z,14.27
2019-05-16T20:04:40.457Z,14.19
2019-05-16T20:07:12.410Z,14.14
2019-05-16T20:09:46.807Z,14.07
2019-05-16T20:12:18.087Z,14.01
2019-05-16T20:14:50.030Z,13.98
2019-05-16T20:17:22.032Z,13.90
2019-05-16T20:19:56.257Z,13.81
2019-05-16T20:22:27.636Z,13.80
2019-05-16T20:24:59.702Z,13.77
2019-05-16T20:27:31.674Z,13.70
2019-05-16T20:30:06.515Z,13.72
2019-05-16T20:32:41.606Z,13.73
2019-05-16T20:35:17.330Z,13.68
2019-05-16T20:37:48.582Z,13.62
2019-05-16T20:40:20.745Z,13.61
2019-05-16T20:42:52.735Z,13.58
2019-05-16T20:45:27.078Z,13.58
2019-05-16T20:48:10.880Z,13.52
2019-05-16T20:50:33.758Z,13.51
2019-05-16T20:53:07.231Z,13.49
2019-05-16T20:55:39.733Z,13.45
2019-05-16T20:58:11.983Z,13.41
2019-05-16T21:00:44.095Z,13.34
2019-05-16T21:03:16.449Z,13.30
2019-05-16T21:05:48.656Z,13.28
2019-05-16T21:08:20.936Z,13.24
2019-05-16T21:10:53.208Z,13.18
2019-05-16T21:13:25.409Z,13.15
2019-05-16T21:15:57.793Z,13.21
2019-05-16T21:18:30.216Z,13.19
2019-05-16T21:21:03.612Z,13.13
2019-05-16T21:23:37.488Z,13.11
2019-05-16T21:26:09.639Z,13.08
2019-05-16T21:28:41.922Z,13.03
2019-05-16T21:31:16.400Z,13.08
2019-05-16T21:33:49.340Z,13.05
2019-05-16T21:36:21.841Z,13.06
2019-05-16T21:38:54.443Z,13.04
2019-05-16T21:41:27.111Z,12.98
2019-05-16T21:44:00.857Z,12.93
2019-05-16T21:46:36.394Z,12.86
2019-05-16T21:49:08.113Z,12.92
2019-05-16T21:51:40.465Z,12.91
2019-05-16T21:54:12.850Z,12.81
2019-05-16T21:56:46.802Z,12.79
2019-05-16T21:59:19.644Z,12.77
2019-05-16T22:01:52.143Z,12.78
2019-05-16T22:04:24.539Z,12.71
2019-05-16T22:07:00.293Z,12.72
2019-05-16T22:09:33.699Z,12.68
2019-05-16T22:12:07.587Z,12.69
2019-05-16T22:14:46.652Z,12.65
2019-05-16T22:17:19.155Z,12.62
2019-05-16T22:19:51.466Z,12.60
2019-05-16T22:22:27.551Z,12.54
2019-05-16T22:24:59.124Z,12.56
2019-05-16T22:27:33.381Z,12.51
2019-05-16T22:30:08.497Z,12.49
2019-05-16T22:32:41.059Z,12.46
2019-05-16T22:35:13.775Z,12.39
2019-05-16T22:37:55.130Z,12.37
2019-05-16T22:40:22.430Z,12.29
2019-05-16T22:42:54.616Z,12.34
2019-05-16T22:45:27.246Z,12.29
2019-05-16T22:47:59.711Z,12.27
2019-05-16T22:50:33.598Z,12.38
2019-05-16T22:53:06.400Z,12.28
2019-05-16T22:55:38.901Z,12.21
2019-05-16T22:58:11.144Z,12.19
2019-05-16T23:00:44.580Z,12.19
2019-05-16T23:03:19.800Z,12.12
2019-05-16T23:05:51.921Z,12.05
2019-05-16T23:08:24.059Z,11.95
2019-05-16T23:10:56.679Z,12.00
2019-05-16T23:13:29.315Z,11.98
2019-05-16T23:16:03.098Z,11.94
2019-05-16T23:18:37.280Z,11.95
2019-05-16T23:21:10.811Z,11.83
2019-05-16T23:23:42.791Z,11.75
2019-05-16T23:26:16.769Z,11.72
2019-05-16T23:28:50.567Z,11.65
2019-05-16T23:31:24.384Z,11.55
2019-05-16T23:33:59.300Z,11.57
2019-05-16T23:36:31.303Z,11.50
2019-05-16T23:39:06.243Z,11.42
2019-05-16T23:41:42.095Z,11.47
2019-05-16T23:44:16.518Z,11.40
2019-05-16T23:46:47.852Z,11.31
2019-05-16T23:49:20.303Z,11.19
2019-05-16T23:51:52.831Z,11.19
2019-05-16T23:54:27.819Z,11.21
2019-05-16T23:56:59.520Z,11.20
2019-05-16T23:59:31.556Z,11.27
